createdAt,value
2018-08-12T00:00:21.777Z,99849.33
2018-08-12T00:00:52.901Z,99846.67
2018-08-12T00:01:24.072Z,99845.95
2018-08-12T00:01:55.251Z,99840.64
2018-08-12T00:02:26.410Z,99842.41
2018-08-12T00:02:57.572Z,99837.47
2018-08-12T00:03:28.696Z,99838.42
2018-08-12T00:03:59.869Z,99840.23
2018-08-12T00:04:31.080Z,99841.56
2018-08-12T00:05:02.284Z,99843.95
2018-08-12T00:05:33.502Z,99837.66
2018-08-12T00:06:04.668Z,99846.38
2018-08-12T00:06:35.888Z,99846.00
2018-08-12T00:07:07.007Z,99842.97
2018-08-12T00:07:38.129Z,99843.08
2018-08-12T00:08:09.238Z,99843.30
2018-08-12T00:08:40.459Z,99846.06
2018-08-12T00:09:11.575Z,99846.52
2018-08-12T00:09:42.679Z,99845.19
2018-08-12T00:10:14.663Z,99847.01
2018-08-12T00:10:45.793Z,99852.39
2018-08-12T00:11:16.911Z,99848.25
2018-08-12T00:11:48.126Z,99849.52
2018-08-12T00:12:19.359Z,99849.25
2018-08-12T00:12:50.536Z,99849.70
2018-08-12T00:13:21.762Z,99845.07
2018-08-12T00:13:52.879Z,99850.20
2018-08-12T00:14:24.040Z,99852.09
2018-08-12T00:14:55.212Z,99843.20
2018-08-12T00:15:26.424Z,99845.85
2018-08-12T00:15:57.539Z,99851.16
2018-08-12T00:16:28.649Z,99846.80
2018-08-12T00:16:59.759Z,99843.31
2018-08-12T00:17:30.924Z,99845.30
2018-08-12T00:18:02.148Z,99843.48
2018-08-12T00:18:33.277Z,99844.09
2018-08-12T00:19:04.389Z,99840.29
2018-08-12T00:19:35.554Z,99841.72
2018-08-12T00:20:06.759Z,99842.77
2018-08-12T00:20:37.906Z,99844.20
2018-08-12T00:21:09.126Z,99837.66
2018-08-12T00:21:40.303Z,99845.91
2018-08-12T00:22:11.414Z,99843.27
2018-08-12T00:22:42.625Z,99843.72
2018-08-12T00:23:13.738Z,99850.24
2018-08-12T00:23:44.902Z,99848.56
2018-08-12T00:24:16.012Z,99844.20
2018-08-12T00:24:47.117Z,99847.42
2018-08-12T00:25:18.232Z,99842.12
2018-08-12T00:25:49.372Z,99847.98
2018-08-12T00:26:20.547Z,99852.28
2018-08-12T00:26:51.708Z,99847.54
2018-08-12T00:27:22.872Z,99851.03
2018-08-12T00:27:53.984Z,99848.55
2018-08-12T00:28:25.148Z,99848.45
2018-08-12T00:28:56.269Z,99854.08
2018-08-12T00:29:27.375Z,99851.98
2018-08-12T00:29:58.585Z,99854.92
2018-08-12T00:30:29.751Z,99848.39
2018-08-12T00:31:00.914Z,99853.14
2018-08-12T00:31:32.141Z,99848.02
2018-08-12T00:32:03.263Z,99854.84
2018-08-12T00:32:34.435Z,99852.02
2018-08-12T00:33:05.609Z,99853.52
2018-08-12T00:33:36.783Z,99849.16
2018-08-12T00:34:07.904Z,99852.79
2018-08-12T00:34:39.066Z,99852.02
2018-08-12T00:35:10.231Z,99854.01
2018-08-12T00:35:41.455Z,99851.08
2018-08-12T00:36:12.568Z,99848.25
2018-08-12T00:36:43.681Z,99852.78
2018-08-12T00:37:14.797Z,99852.12
2018-08-12T00:37:45.903Z,99852.32
2018-08-12T00:38:17.079Z,99849.95
2018-08-12T00:38:48.256Z,99857.78
2018-08-12T00:39:19.429Z,99858.16
2018-08-12T00:39:50.551Z,99857.13
2018-08-12T00:40:21.651Z,99856.36
2018-08-12T00:40:52.807Z,99851.30
2018-08-12T00:41:23.989Z,99846.66
2018-08-12T00:41:55.208Z,99853.09
2018-08-12T00:42:26.397Z,99856.39
2018-08-12T00:42:57.522Z,99853.56
2018-08-12T00:43:28.756Z,99845.88
2018-08-12T00:43:59.878Z,99851.93
2018-08-12T00:44:31.037Z,99855.71
2018-08-12T00:45:02.224Z,99855.03
2018-08-12T00:45:33.444Z,99851.04
2018-08-12T00:46:04.616Z,99851.59
2018-08-12T00:46:35.788Z,99855.66
2018-08-12T00:47:06.912Z,99850.37
2018-08-12T00:47:38.028Z,99853.02
2018-08-12T00:48:09.204Z,99856.59
2018-08-12T00:48:40.382Z,99851.59
2018-08-12T00:49:11.555Z,99856.50
2018-08-12T00:49:42.744Z,99857.72
2018-08-12T00:50:13.860Z,99857.83
2018-08-12T00:50:44.971Z,99852.62
2018-08-12T00:51:16.176Z,99854.41
2018-08-12T00:51:47.287Z,99851.66
2018-08-12T00:52:18.504Z,99853.38
2018-08-12T00:52:49.777Z,99852.05
2018-08-12T00:53:20.948Z,99849.41
2018-08-12T00:53:52.069Z,99852.44
2018-08-12T00:54:23.293Z,99850.08
2018-08-12T00:54:54.471Z,99847.34
2018-08-12T00:55:25.616Z,99847.34
2018-08-12T00:55:56.790Z,99853.20
2018-08-12T00:56:27.972Z,99849.02
2018-08-12T00:56:59.125Z,99848.05
2018-08-12T00:57:30.292Z,99848.44
2018-08-12T00:58:01.431Z,99849.53
2018-08-12T00:58:32.579Z,99850.41
2018-08-12T00:59:03.753Z,99845.76
2018-08-12T00:59:34.916Z,99848.86
2018-08-12T01:00:06.085Z,99848.41
2018-08-12T01:00:37.195Z,99848.56
2018-08-12T01:01:08.306Z,99851.79
2018-08-12T01:01:39.424Z,99847.98
2018-08-12T01:02:10.549Z,99851.36
2018-08-12T01:02:41.712Z,99853.68
2018-08-12T01:03:12.924Z,99851.19
2018-08-12T01:03:44.038Z,99850.45
2018-08-12T01:04:15.164Z,99852.61
2018-08-12T01:04:46.275Z,99849.03
2018-08-12T01:05:17.396Z,99850.20
2018-08-12T01:05:48.649Z,99852.36
2018-08-12T01:06:19.839Z,99849.17
2018-08-12T01:06:51.074Z,99854.84
2018-08-12T01:07:22.282Z,99846.75
2018-08-12T01:07:53.451Z,99848.37
2018-08-12T01:08:24.684Z,99846.50
2018-08-12T01:08:55.852Z,99850.27
2018-08-12T01:09:27.064Z,99851.98
2018-08-12T01:09:58.290Z,99845.38
2018-08-12T01:10:29.452Z,99845.17
2018-08-12T01:11:00.620Z,99845.95
2018-08-12T01:11:31.805Z,99843.31
2018-08-12T01:12:02.923Z,99842.66
2018-08-12T01:12:34.104Z,99850.34
2018-08-12T01:13:05.212Z,99848.05
2018-08-12T01:13:36.434Z,99841.37
2018-08-12T01:14:07.611Z,99840.50
2018-08-12T01:14:38.730Z,99843.08
2018-08-12T01:15:09.907Z,99843.53
2018-08-12T01:15:41.077Z,99840.59
2018-08-12T01:16:12.207Z,99841.44
2018-08-12T01:16:43.370Z,99843.14
2018-08-12T01:17:14.491Z,99847.70
2018-08-12T01:17:45.660Z,99840.86
2018-08-12T01:18:16.795Z,99837.62
2018-08-12T01:18:47.907Z,99834.24
2018-08-12T01:19:19.055Z,99840.24
2018-08-12T01:19:50.172Z,99836.47
2018-08-12T01:20:21.298Z,99834.56
2018-08-12T01:20:52.415Z,99838.66
2018-08-12T01:21:23.589Z,99842.81
2018-08-12T01:21:54.703Z,99839.48
2018-08-12T01:22:25.862Z,99838.45
2018-08-12T01:22:57.049Z,99840.56
2018-08-12T01:23:28.162Z,99840.17
2018-08-12T01:23:59.284Z,99838.84
2018-08-12T01:24:30.431Z,99841.30
2018-08-12T01:25:01.544Z,99842.11
2018-08-12T01:25:32.719Z,99841.56
2018-08-12T01:26:03.881Z,99845.34
2018-08-12T01:26:35.047Z,99844.41
2018-08-12T01:27:06.163Z,99846.11
2018-08-12T01:27:37.275Z,99844.21
2018-08-12T01:28:08.394Z,99843.27
2018-08-12T01:28:39.502Z,99841.56
2018-08-12T01:29:10.616Z,99843.17
2018-08-12T01:29:41.771Z,99838.76
2018-08-12T01:30:12.951Z,99837.89
2018-08-12T01:30:44.074Z,99833.47
2018-08-12T01:31:15.186Z,99829.12
2018-08-12T01:31:46.307Z,99830.44
2018-08-12T01:32:17.476Z,99835.15
2018-08-12T01:32:48.604Z,99838.18
2018-08-12T01:33:19.721Z,99834.77
2018-08-12T01:33:50.854Z,99832.66
2018-08-12T01:34:22.004Z,99827.95
2018-08-12T01:34:53.168Z,99828.95
2018-08-12T01:35:24.342Z,99832.33
2018-08-12T01:35:55.575Z,99837.69
2018-08-12T01:36:26.738Z,99829.01
2018-08-12T01:36:57.900Z,99828.52
2018-08-12T01:37:29.076Z,99829.40
2018-08-12T01:38:00.258Z,99830.23
2018-08-12T01:38:31.513Z,99831.46
2018-08-12T01:39:02.699Z,99827.05
2018-08-12T01:39:33.925Z,99830.14
2018-08-12T01:40:05.101Z,99829.69
2018-08-12T01:40:36.273Z,99827.50
2018-08-12T01:41:07.441Z,99826.66
2018-08-12T01:41:38.625Z,99829.45
2018-08-12T01:42:09.790Z,99837.88
2018-08-12T01:42:40.915Z,99830.10
2018-08-12T01:43:12.140Z,99829.27
2018-08-12T01:43:43.299Z,99829.36
2018-08-12T01:44:14.471Z,99831.52
2018-08-12T01:44:45.647Z,99833.71
2018-08-12T01:45:16.810Z,99833.42
2018-08-12T01:45:47.934Z,99835.58
2018-08-12T01:46:19.190Z,99837.83
2018-08-12T01:46:50.352Z,99833.48
2018-08-12T01:47:21.531Z,99838.38
2018-08-12T01:47:52.692Z,99837.54
2018-08-12T01:48:23.872Z,99839.34
2018-08-12T01:48:54.998Z,99836.70
2018-08-12T01:49:26.210Z,99837.54
2018-08-12T01:49:57.397Z,99839.05
2018-08-12T01:50:28.507Z,99836.95
2018-08-12T01:50:59.615Z,99834.11
2018-08-12T01:51:30.884Z,99835.14
2018-08-12T01:52:02.061Z,99839.25
2018-08-12T01:52:33.175Z,99839.80
2018-08-12T01:53:04.285Z,99839.89
2018-08-12T01:53:35.383Z,99840.82
2018-08-12T01:54:06.545Z,99836.95
2018-08-12T01:54:37.736Z,99840.62
2018-08-12T01:55:08.892Z,99839.39
2018-08-12T01:55:40.047Z,99839.30
2018-08-12T01:56:11.160Z,99840.14
2018-08-12T01:56:42.377Z,99839.78
2018-08-12T01:57:13.552Z,99844.10
2018-08-12T01:57:44.683Z,99842.42
2018-08-12T01:58:15.793Z,99842.03
2018-08-12T01:58:46.964Z,99840.23
2018-08-12T01:59:18.089Z,99840.71
2018-08-12T01:59:49.198Z,99847.41
2018-08-12T02:00:20.364Z,99843.89
2018-08-12T02:00:51.579Z,99845.27
2018-08-12T02:01:22.754Z,99837.34
2018-08-12T02:01:53.934Z,99843.56
2018-08-12T02:02:25.117Z,99843.65
2018-08-12T02:02:56.282Z,99841.84
2018-08-12T02:03:27.455Z,99839.30
2018-08-12T02:03:58.628Z,99837.68
2018-08-12T02:04:29.849Z,99845.22
2018-08-12T02:05:00.971Z,99844.28
2018-08-12T02:05:32.133Z,99848.79
2018-08-12T02:06:03.287Z,99847.17
2018-08-12T02:06:34.397Z,99845.74
2018-08-12T02:07:05.507Z,99847.78
2018-08-12T02:07:36.670Z,99846.91
2018-08-12T02:08:07.780Z,99850.88
2018-08-12T02:08:38.950Z,99844.45
2018-08-12T02:09:10.118Z,99847.94
2018-08-12T02:09:41.238Z,99849.73
2018-08-12T02:10:12.351Z,99848.33
2018-08-12T02:10:43.524Z,99848.81
2018-08-12T02:11:14.683Z,99851.99
2018-08-12T02:11:45.788Z,99851.20
2018-08-12T02:12:16.958Z,99853.02
2018-08-12T02:12:48.188Z,99851.30
2018-08-12T02:13:19.368Z,99853.02
2018-08-12T02:13:50.483Z,99855.02
2018-08-12T02:14:21.644Z,99851.36
2018-08-12T02:14:52.764Z,99850.78
2018-08-12T02:15:23.872Z,99855.62
2018-08-12T02:15:54.998Z,99855.14
2018-08-12T02:16:26.139Z,99858.66
2018-08-12T02:16:57.414Z,99857.78
2018-08-12T02:17:28.592Z,99853.72
2018-08-12T02:17:59.800Z,99853.81
2018-08-12T02:18:30.963Z,99852.05
2018-08-12T02:19:02.133Z,99856.84
2018-08-12T02:19:33.313Z,99856.36
2018-08-12T02:20:04.474Z,99857.78
2018-08-12T02:20:35.584Z,99848.33
2018-08-12T02:21:06.695Z,99848.03
2018-08-12T02:21:37.912Z,99851.20
2018-08-12T02:22:09.083Z,99854.33
2018-08-12T02:22:40.245Z,99849.20
2018-08-12T02:23:11.476Z,99847.97
2018-08-12T02:23:42.660Z,99850.85
2018-08-12T02:24:13.793Z,99853.58
2018-08-12T02:24:44.957Z,99846.29
2018-08-12T02:25:16.144Z,99852.50
2018-08-12T02:25:47.309Z,99851.18
2018-08-12T02:26:18.423Z,99849.95
2018-08-12T02:26:49.589Z,99846.47
2018-08-12T02:27:20.751Z,99844.77
2018-08-12T02:27:51.973Z,99849.66
2018-08-12T02:28:23.204Z,99847.41
2018-08-12T02:28:54.325Z,99848.19
2018-08-12T02:29:25.486Z,99848.63
2018-08-12T02:29:56.616Z,99847.22
2018-08-12T02:30:27.848Z,99843.83
2018-08-12T02:30:59.036Z,99844.38
2018-08-12T02:31:30.157Z,99847.94
2018-08-12T02:32:01.311Z,99841.34
2018-08-12T02:32:32.512Z,99846.47
2018-08-12T02:33:03.627Z,99850.25
2018-08-12T02:33:34.730Z,99847.86
2018-08-12T02:34:05.852Z,99852.66
2018-08-12T02:34:37.084Z,99854.81
2018-08-12T02:35:08.308Z,99850.94
2018-08-12T02:35:39.537Z,99847.86
2018-08-12T02:36:10.778Z,99851.81
2018-08-12T02:36:41.949Z,99854.52
2018-08-12T02:37:13.054Z,99853.67
2018-08-12T02:37:44.262Z,99852.14
2018-08-12T02:38:15.430Z,99849.80
2018-08-12T02:38:46.600Z,99849.02
2018-08-12T02:39:17.767Z,99823.29
2018-08-12T02:39:48.936Z,99855.16
2018-08-12T02:40:20.141Z,99847.03
2018-08-12T02:40:51.255Z,99853.32
2018-08-12T02:41:22.414Z,99848.67
2018-08-12T02:41:53.592Z,99855.36
2018-08-12T02:42:24.764Z,99852.62
2018-08-12T02:42:55.941Z,99853.55
2018-08-12T02:43:27.161Z,99852.72
2018-08-12T02:43:58.332Z,99853.73
2018-08-12T02:44:29.566Z,99859.55
2018-08-12T02:45:00.795Z,99859.16
2018-08-12T02:45:32.006Z,99857.53
2018-08-12T02:46:03.181Z,99858.31
2018-08-12T02:46:34.337Z,99859.16
2018-08-12T02:47:05.508Z,99853.12
2018-08-12T02:47:36.611Z,99857.69
2018-08-12T02:48:07.783Z,99860.33
2018-08-12T02:48:38.953Z,99852.50
2018-08-12T02:49:10.124Z,99856.82
2018-08-12T02:49:41.281Z,99858.09
2018-08-12T02:50:12.518Z,99857.21
2018-08-12T02:50:43.705Z,99857.21
2018-08-12T02:51:14.826Z,99855.05
2018-08-12T02:51:45.932Z,99857.21
2018-08-12T02:52:17.035Z,99855.59
2018-08-12T02:52:48.142Z,99855.20
2018-08-12T02:53:19.400Z,99859.85
2018-08-12T02:53:50.515Z,99853.02
2018-08-12T02:54:21.620Z,99852.93
2018-08-12T02:54:52.731Z,99855.87
2018-08-12T02:55:23.953Z,99852.39
2018-08-12T02:55:55.194Z,99857.19
2018-08-12T02:56:26.434Z,99859.44
2018-08-12T02:56:57.549Z,99857.77
2018-08-12T02:57:28.696Z,99860.55
2018-08-12T02:57:59.792Z,99857.91
2018-08-12T02:58:31.009Z,99856.28
2018-08-12T02:59:02.167Z,99860.78
2018-08-12T02:59:33.341Z,99860.87
2018-08-12T03:00:04.504Z,99860.87
2018-08-12T03:00:35.664Z,99862.66
2018-08-12T03:01:06.881Z,99860.87
2018-08-12T03:01:38.059Z,99868.78
2018-08-12T03:02:09.167Z,99860.17
2018-08-12T03:02:40.326Z,99865.92
2018-08-12T03:03:11.447Z,99867.34
2018-08-12T03:03:42.551Z,99862.75
2018-08-12T03:04:13.716Z,99863.29
2018-08-12T03:04:44.858Z,99863.83
2018-08-12T03:05:15.971Z,99863.83
2018-08-12T03:05:47.132Z,99859.11
2018-08-12T03:06:18.254Z,99859.56
2018-08-12T03:06:49.361Z,99859.25
2018-08-12T03:07:20.528Z,99863.75
2018-08-12T03:07:51.639Z,99862.83
2018-08-12T03:08:22.740Z,99864.71
2018-08-12T03:08:53.844Z,99862.52
2018-08-12T03:09:25.019Z,99858.95
2018-08-12T03:09:56.227Z,99860.66
2018-08-12T03:10:27.448Z,99866.34
2018-08-12T03:10:58.555Z,99867.03
2018-08-12T03:11:29.687Z,99858.33
2018-08-12T03:12:00.792Z,99868.27
2018-08-12T03:12:31.903Z,99861.66
2018-08-12T03:13:03.005Z,99863.69
2018-08-12T03:13:34.115Z,99868.03
2018-08-12T03:14:05.276Z,99865.39
2018-08-12T03:14:36.392Z,99866.14
2018-08-12T03:15:07.499Z,99867.38
2018-08-12T03:15:38.698Z,99871.42
2018-08-12T03:16:09.808Z,99868.78
2018-08-12T03:16:40.903Z,99868.78
2018-08-12T03:17:12.068Z,99840.18
2018-08-12T03:17:43.168Z,99875.38
2018-08-12T03:18:14.332Z,99873.22
2018-08-12T03:18:45.446Z,99869.71
2018-08-12T03:19:16.652Z,99876.70
2018-08-12T03:19:47.765Z,99878.59
2018-08-12T03:20:18.936Z,99876.88
2018-08-12T03:20:50.036Z,99878.73
2018-08-12T03:21:21.260Z,99871.92
2018-08-12T03:21:52.372Z,99872.84
2018-08-12T03:22:23.495Z,99874.30
2018-08-12T03:22:54.726Z,99872.63
2018-08-12T03:23:25.888Z,99876.94
2018-08-12T03:23:57.072Z,99847.41
2018-08-12T03:24:28.225Z,99871.97
2018-08-12T03:24:59.335Z,99877.95
2018-08-12T03:25:30.495Z,99873.94
2018-08-12T03:26:01.654Z,99876.88
2018-08-12T03:26:32.771Z,99870.67
2018-08-12T03:27:03.956Z,99881.45
2018-08-12T03:27:35.068Z,99871.81
2018-08-12T03:28:06.179Z,99873.14
2018-08-12T03:28:37.353Z,99878.95
2018-08-12T03:29:08.510Z,99871.91
2018-08-12T03:29:39.625Z,99874.45
2018-08-12T03:30:10.934Z,99877.00
2018-08-12T03:30:41.925Z,99872.20
2018-08-12T03:31:13.085Z,99875.78
2018-08-12T03:31:44.269Z,99872.66
2018-08-12T03:32:15.421Z,99868.70
2018-08-12T03:32:46.546Z,99868.78
2018-08-12T03:33:17.656Z,99872.75
2018-08-12T03:33:48.763Z,99873.14
2018-08-12T03:34:19.988Z,99876.25
2018-08-12T03:34:51.091Z,99870.67
2018-08-12T03:35:22.196Z,99871.66
2018-08-12T03:35:53.419Z,99872.14
2018-08-12T03:36:24.588Z,99870.81
2018-08-12T03:36:55.743Z,99875.56
2018-08-12T03:37:26.859Z,99876.17
2018-08-12T03:37:58.017Z,99875.37
2018-08-12T03:38:29.133Z,99876.76
2018-08-12T03:39:00.298Z,99878.15
2018-08-12T03:39:31.522Z,99880.95
2018-08-12T03:40:02.643Z,99877.53
2018-08-12T03:40:33.744Z,99871.05
2018-08-12T03:41:04.868Z,99874.14
2018-08-12T03:41:35.976Z,99880.08
2018-08-12T03:42:07.147Z,99881.81
2018-08-12T03:42:38.326Z,99877.61
2018-08-12T03:43:09.545Z,99882.56
2018-08-12T03:43:40.661Z,99881.59
2018-08-12T03:44:11.773Z,99876.70
2018-08-12T03:44:42.991Z,99879.00
2018-08-12T03:45:14.112Z,99874.49
2018-08-12T03:45:45.332Z,99877.73
2018-08-12T03:46:16.447Z,99876.87
2018-08-12T03:46:47.668Z,99875.40
2018-08-12T03:47:18.896Z,99878.86
2018-08-12T03:47:50.065Z,99852.82
2018-08-12T03:48:21.179Z,99876.73
2018-08-12T03:48:52.323Z,99871.63
2018-08-12T03:49:23.416Z,99873.08
2018-08-12T03:49:54.680Z,99881.78
2018-08-12T03:50:25.848Z,99874.61
2018-08-12T03:50:57.118Z,99876.92
2018-08-12T03:51:28.235Z,99877.55
2018-08-12T03:51:59.403Z,99877.74
2018-08-12T03:52:30.584Z,99880.58
2018-08-12T03:53:01.775Z,99879.92
2018-08-12T03:53:32.881Z,99879.48
2018-08-12T03:54:03.995Z,99878.80
2018-08-12T03:54:35.109Z,99882.67
2018-08-12T03:55:06.231Z,99882.47
2018-08-12T03:55:37.503Z,99882.30
2018-08-12T03:56:08.620Z,99880.97
2018-08-12T03:56:39.736Z,99888.73
2018-08-12T03:57:10.966Z,99876.42
2018-08-12T03:57:42.146Z,99878.36
2018-08-12T03:58:13.330Z,99876.84
2018-08-12T03:58:44.507Z,99879.17
2018-08-12T03:59:15.615Z,99876.67
2018-08-12T03:59:46.790Z,99874.55
2018-08-12T04:00:17.957Z,99872.41
2018-08-12T04:00:49.177Z,99871.34
2018-08-12T04:01:20.299Z,99871.59
2018-08-12T04:01:51.467Z,99874.33
2018-08-12T04:02:22.661Z,99879.08
2018-08-12T04:02:53.787Z,99875.10
2018-08-12T04:03:24.957Z,99877.38
2018-08-12T04:03:56.184Z,99883.78
2018-08-12T04:04:27.422Z,99878.62
2018-08-12T04:04:58.606Z,99877.71
2018-08-12T04:05:29.725Z,99879.99
2018-08-12T04:06:00.881Z,99879.83
2018-08-12T04:06:32.055Z,99879.72
2018-08-12T04:07:03.180Z,99882.11
2018-08-12T04:07:34.344Z,99875.44
2018-08-12T04:08:05.510Z,99881.27
2018-08-12T04:08:36.640Z,99873.08
2018-08-12T04:09:07.821Z,99875.05
2018-08-12T04:09:38.939Z,99871.56
2018-08-12T04:10:10.116Z,99879.17
2018-08-12T04:10:41.224Z,99873.77
2018-08-12T04:11:12.442Z,99875.59
2018-08-12T04:11:43.623Z,99874.57
2018-08-12T04:12:14.799Z,99873.09
2018-08-12T04:12:46.027Z,99882.58
2018-08-12T04:13:17.192Z,99875.96
2018-08-12T04:13:48.300Z,99872.30
2018-08-12T04:14:19.457Z,99878.29
2018-08-12T04:14:50.632Z,99876.92
2018-08-12T04:15:21.754Z,99869.86
2018-08-12T04:15:52.921Z,99870.80
2018-08-12T04:16:24.094Z,99874.86
2018-08-12T04:16:55.333Z,99877.80
2018-08-12T04:17:26.450Z,99876.92
2018-08-12T04:17:57.599Z,99877.67
2018-08-12T04:18:28.709Z,99875.61
2018-08-12T04:18:59.905Z,99876.08
2018-08-12T04:19:31.084Z,99874.39
2018-08-12T04:20:02.362Z,99874.74
2018-08-12T04:20:33.541Z,99879.10
2018-08-12T04:21:04.788Z,99877.08
2018-08-12T04:21:35.964Z,99875.86
2018-08-12T04:22:07.070Z,99872.98
2018-08-12T04:22:38.277Z,99874.80
2018-08-12T04:23:09.457Z,99877.41
2018-08-12T04:23:40.620Z,99873.13
2018-08-12T04:24:11.732Z,99877.39
2018-08-12T04:24:42.879Z,99868.31
2018-08-12T04:25:14.048Z,99869.27
2018-08-12T04:25:45.167Z,99872.25
2018-08-12T04:26:16.283Z,99875.00
2018-08-12T04:27:18.372Z,99874.41
2018-08-12T04:27:49.544Z,99871.92
2018-08-12T04:28:20.779Z,99869.19
2018-08-12T04:28:51.976Z,99871.77
2018-08-12T04:29:23.145Z,99876.39
2018-08-12T04:29:54.336Z,99874.50
2018-08-12T04:30:25.525Z,99874.27
2018-08-12T04:30:56.710Z,99873.30
2018-08-12T04:31:27.872Z,99879.16
2018-08-12T04:31:58.995Z,99867.86
2018-08-12T04:32:30.160Z,99867.36
2018-08-12T04:33:01.328Z,99869.91
2018-08-12T04:33:32.453Z,99866.89
2018-08-12T04:34:03.559Z,99871.31
2018-08-12T04:34:34.667Z,99871.19
2018-08-12T04:35:05.880Z,99870.55
2018-08-12T04:35:37.049Z,99871.84
2018-08-12T04:36:08.151Z,99876.58
2018-08-12T04:36:39.310Z,99873.12
2018-08-12T04:37:10.536Z,99874.65
2018-08-12T04:37:41.718Z,99876.61
2018-08-12T04:38:12.879Z,99873.33
2018-08-12T04:38:44.040Z,99879.87
2018-08-12T04:39:15.153Z,99878.98
2018-08-12T04:39:46.320Z,99876.95
2018-08-12T04:40:17.500Z,99875.89
2018-08-12T04:40:48.611Z,99879.02
2018-08-12T04:41:19.777Z,99875.98
2018-08-12T04:41:50.957Z,99875.31
2018-08-12T04:42:22.117Z,99880.57
2018-08-12T04:42:53.295Z,99877.07
2018-08-12T04:43:24.477Z,99876.42
2018-08-12T04:43:55.648Z,99873.48
2018-08-12T04:44:26.874Z,99879.36
2018-08-12T04:44:57.991Z,99880.17
2018-08-12T04:45:29.151Z,99881.66
2018-08-12T04:46:00.361Z,99871.14
2018-08-12T04:46:31.484Z,99874.59
2018-08-12T04:47:02.657Z,99875.89
2018-08-12T04:47:33.836Z,99881.38
2018-08-12T04:48:04.960Z,99878.48
2018-08-12T04:48:36.133Z,99876.20
2018-08-12T04:49:07.333Z,99879.19
2018-08-12T04:49:38.512Z,99881.89
2018-08-12T04:50:09.643Z,99879.94
2018-08-12T04:50:40.759Z,99878.28
2018-08-12T04:51:11.929Z,99881.82
2018-08-12T04:51:43.105Z,99885.69
2018-08-12T04:52:14.290Z,99879.66
2018-08-12T04:52:45.464Z,99877.48
2018-08-12T04:53:16.684Z,99880.58
2018-08-12T04:53:47.921Z,99875.66
2018-08-12T04:54:19.035Z,99882.36
2018-08-12T04:54:50.218Z,99881.82
2018-08-12T04:55:21.389Z,99883.78
2018-08-12T04:55:52.516Z,99886.06
2018-08-12T04:56:23.696Z,99888.03
2018-08-12T04:56:54.807Z,99888.27
2018-08-12T04:57:25.927Z,99885.45
2018-08-12T04:57:57.104Z,99886.86
2018-08-12T04:58:28.286Z,99881.73
2018-08-12T04:58:59.574Z,99882.11
2018-08-12T04:59:30.748Z,99886.78
2018-08-12T05:00:01.935Z,99886.30
2018-08-12T05:00:33.104Z,99881.91
2018-08-12T05:01:04.342Z,99878.71
2018-08-12T05:01:35.470Z,99883.89
2018-08-12T05:02:06.592Z,99885.85
2018-08-12T05:02:37.763Z,99882.30
2018-08-12T05:03:09.011Z,99877.02
2018-08-12T05:03:40.132Z,99880.41
2018-08-12T05:04:11.351Z,99878.64
2018-08-12T05:04:42.532Z,99885.82
2018-08-12T05:05:13.659Z,99888.47
2018-08-12T05:05:44.787Z,99880.48
2018-08-12T05:06:15.964Z,99884.99
2018-08-12T05:06:47.148Z,99883.23
2018-08-12T05:07:18.267Z,99879.52
2018-08-12T05:07:49.388Z,99884.19
2018-08-12T05:08:20.575Z,99888.19
2018-08-12T05:08:51.697Z,99888.19
2018-08-12T05:09:22.912Z,99883.59
2018-08-12T05:09:54.136Z,99887.77
2018-08-12T05:10:25.256Z,99890.55
2018-08-12T05:10:56.436Z,99891.50
2018-08-12T05:11:27.599Z,99887.66
2018-08-12T05:11:58.715Z,99893.74
2018-08-12T05:12:29.840Z,99892.50
2018-08-12T05:13:01.005Z,99881.50
2018-08-12T05:13:32.119Z,99893.73
2018-08-12T05:14:03.288Z,99891.78
2018-08-12T05:14:34.440Z,99889.45
2018-08-12T05:15:05.620Z,99890.80
2018-08-12T05:15:36.776Z,99882.48
2018-08-12T05:16:07.888Z,99883.52
2018-08-12T05:16:39.001Z,99894.99
2018-08-12T05:17:10.113Z,99889.66
2018-08-12T05:17:41.259Z,99893.53
2018-08-12T05:18:12.425Z,99891.08
2018-08-12T05:18:43.588Z,99883.96
2018-08-12T05:19:14.703Z,99884.25
2018-08-12T05:19:45.812Z,99892.48
2018-08-12T05:20:16.925Z,99891.58
2018-08-12T05:20:48.036Z,99885.39
2018-08-12T05:21:19.200Z,99886.31
2018-08-12T05:21:50.312Z,99890.45
2018-08-12T05:22:21.528Z,99888.01
2018-08-12T05:22:52.743Z,99889.46
2018-08-12T05:23:23.857Z,99885.42
2018-08-12T05:23:55.014Z,99889.78
2018-08-12T05:24:26.188Z,99892.73
2018-08-12T05:24:57.318Z,99888.72
2018-08-12T05:25:28.504Z,99884.66
2018-08-12T05:25:59.770Z,99892.91
2018-08-12T05:26:30.960Z,99884.66
2018-08-12T05:27:02.279Z,99889.34
2018-08-12T05:27:33.475Z,99882.97
2018-08-12T05:28:04.688Z,99884.95
2018-08-12T05:28:35.890Z,99884.59
2018-08-12T05:29:07.080Z,99890.03
2018-08-12T05:29:38.304Z,99885.18
2018-08-12T05:30:09.449Z,99877.92
2018-08-12T05:30:40.740Z,99894.37
2018-08-12T05:31:12.069Z,99885.95
2018-08-12T05:31:43.248Z,99886.03
2018-08-12T05:32:14.992Z,99883.69
2018-08-12T05:32:46.200Z,99880.34
2018-08-12T05:33:18.409Z,99888.61
2018-08-12T05:33:49.613Z,99885.56
2018-08-12T05:34:20.782Z,99883.48
2018-08-12T05:34:52.020Z,99882.89
2018-08-12T05:35:23.166Z,99887.03
2018-08-12T05:35:54.351Z,99885.38
2018-08-12T05:36:25.482Z,99886.31
2018-08-12T05:36:56.644Z,99885.26
2018-08-12T05:37:27.908Z,99884.56
2018-08-12T05:37:59.136Z,99880.97
2018-08-12T05:38:30.259Z,99888.01
2018-08-12T05:39:01.373Z,99887.74
2018-08-12T05:39:32.503Z,99885.66
2018-08-12T05:40:03.614Z,99889.02
2018-08-12T05:40:34.785Z,99888.70
2018-08-12T05:41:05.891Z,99884.44
2018-08-12T05:41:37.114Z,99892.70
2018-08-12T05:42:08.244Z,99892.86
2018-08-12T05:42:39.391Z,99894.09
2018-08-12T05:43:10.572Z,99893.51
2018-08-12T05:43:41.687Z,99891.58
2018-08-12T05:44:12.890Z,99896.58
2018-08-12T05:44:44.024Z,99890.65
2018-08-12T05:45:15.199Z,99902.58
2018-08-12T05:45:46.385Z,99892.60
2018-08-12T05:46:17.552Z,99894.52
2018-08-12T05:46:48.669Z,99892.27
2018-08-12T05:47:19.793Z,99889.31
2018-08-12T05:47:50.963Z,99894.95
2018-08-12T05:48:22.092Z,99897.92
2018-08-12T05:48:53.203Z,99895.56
2018-08-12T05:49:24.311Z,99896.25
2018-08-12T05:49:55.428Z,99895.16
2018-08-12T05:50:26.595Z,99887.41
2018-08-12T05:50:57.752Z,99895.66
2018-08-12T05:51:28.919Z,99897.00
2018-08-12T05:52:00.061Z,99897.11
2018-08-12T05:52:31.952Z,99896.06
2018-08-12T05:53:03.216Z,99904.07
2018-08-12T05:53:34.466Z,99903.95
2018-08-12T05:54:05.595Z,99902.50
2018-08-12T05:54:36.721Z,99896.27
2018-08-12T05:55:07.849Z,99901.54
2018-08-12T05:55:38.964Z,99898.59
2018-08-12T05:56:10.147Z,99899.91
2018-08-12T05:56:41.321Z,99904.47
2018-08-12T05:57:12.482Z,99896.86
2018-08-12T05:57:43.669Z,99901.94
2018-08-12T05:58:14.872Z,99899.12
2018-08-12T05:58:46.023Z,99903.70
2018-08-12T05:59:17.149Z,99903.58
2018-08-12T05:59:48.321Z,99898.89
2018-08-12T06:00:19.436Z,99898.06
2018-08-12T06:00:50.676Z,99902.23
2018-08-12T06:01:21.857Z,99903.88
2018-08-12T06:01:52.978Z,99903.13
2018-08-12T06:02:24.155Z,99900.00
2018-08-12T06:02:55.424Z,99901.27
2018-08-12T06:03:26.589Z,99902.53
2018-08-12T06:03:57.838Z,99900.05
2018-08-12T06:04:28.971Z,99900.64
2018-08-12T06:05:00.143Z,99898.80
2018-08-12T06:05:31.298Z,99902.06
2018-08-12T06:06:02.429Z,99899.25
2018-08-12T06:06:33.599Z,99899.34